createdAt,value
2023-02-22T00:00:36.928Z,60.10
2023-02-22T00:03:48.961Z,58.75
2023-02-22T00:06:50.380Z,58.93
2023-02-22T00:10:03.827Z,61.50
2023-02-22T00:13:07.506Z,63.78
2023-02-22T00:15:44.394Z,62.33
2023-02-22T00:18:32.448Z,61.42
2023-02-22T00:21:37.778Z,59.15
2023-02-22T00:24:25.470Z,59.78
2023-02-22T00:27:14.063Z,61.11
2023-02-22T00:30:23.644Z,63.81
2023-02-22T00:32:58.329Z,62.74
2023-02-22T00:35:30.543Z,60.63
2023-02-22T00:38:13.245Z,59.26
2023-02-22T00:40:55.688Z,59.01
2023-02-22T00:43:31.790Z,61.52
2023-02-22T00:46:03.998Z,63.64
2023-02-22T00:49:03.858Z,62.91
2023-02-22T00:51:54.873Z,61.50
2023-02-22T00:54:26.698Z,59.63
2023-02-22T00:56:58.393Z,58.27
2023-02-22T00:59:31.476Z,60.21
2023-02-22T01:02:30.893Z,61.66
2023-02-22T01:05:27.306Z,63.82
2023-02-22T01:08:18.728Z,63.07
2023-02-22T01:10:55.045Z,60.83
2023-02-22T01:13:40.272Z,60.31
2023-02-22T01:16:22.868Z,61.86
2023-02-22T01:19:12.776Z,62.03
2023-02-22T01:22:06.240Z,61.54
2023-02-22T01:25:18.142Z,62.02
2023-02-22T01:28:29.221Z,61.16
2023-02-22T01:31:15.328Z,61.83
2023-02-22T01:33:59.444Z,62.05
2023-02-22T01:36:33.643Z,62.79
2023-02-22T01:39:17.912Z,61.59
2023-02-22T01:41:53.959Z,61.88
2023-02-22T01:45:41.496Z,59.69
2023-02-22T01:49:10.388Z,58.51
2023-02-22T01:52:52.062Z,60.23
2023-02-22T01:55:35.015Z,65.58
2023-02-22T01:58:06.660Z,66.39
2023-02-22T02:00:55.821Z,67.47
2023-02-22T02:03:33.997Z,65.84
2023-02-22T02:06:12.027Z,64.41
2023-02-22T02:10:08.598Z,65.02
2023-02-22T02:13:31.935Z,63.73
2023-02-22T02:16:26.789Z,63.35
2023-02-22T02:20:10.069Z,62.91
2023-02-22T02:24:23.235Z,62.21
2023-02-22T02:27:26.614Z,61.19
2023-02-22T02:31:29.608Z,60.81
2023-02-22T02:35:22.171Z,60.42
2023-02-22T02:39:28.616Z,59.90
2023-02-22T02:41:59.790Z,59.69
2023-02-22T02:45:14.434Z,58.75
2023-02-22T02:48:22.313Z,57.35
2023-02-22T02:51:10.298Z,58.10
2023-02-22T02:54:24.767Z,59.67
2023-02-22T02:58:09.091Z,61.43
2023-02-22T03:01:08.184Z,61.76
2023-02-22T03:05:24.820Z,66.20
2023-02-22T03:08:19.497Z,68.43
2023-02-22T03:11:47.245Z,67.46
2023-02-22T03:15:22.507Z,66.28
2023-02-22T03:19:27.036Z,65.32
2023-02-22T03:23:35.066Z,63.62
2023-02-22T03:27:09.683Z,63.28
2023-02-22T03:30:12.629Z,61.16
2023-02-22T03:33:36.455Z,60.46
2023-02-22T03:37:24.121Z,60.45
2023-02-22T03:41:08.751Z,55.87
2023-02-22T03:44:59.465Z,56.90
2023-02-22T03:48:48.635Z,59.65
2023-02-22T03:52:22.728Z,61.40
2023-02-22T03:55:45.574Z,66.76
2023-02-22T03:58:48.280Z,65.74
2023-02-22T04:01:51.145Z,63.88
2023-02-22T04:04:25.140Z,62.79
2023-02-22T04:07:03.838Z,61.63
2023-02-22T04:10:24.967Z,61.53
2023-02-22T04:12:55.952Z,61.21
2023-02-22T04:15:27.357Z,61.08
2023-02-22T04:18:18.911Z,60.97
2023-02-22T04:20:51.773Z,60.89
2023-02-22T04:24:12.916Z,60.57
2023-02-22T04:26:46.440Z,59.01
2023-02-22T04:29:53.291Z,58.38
2023-02-22T04:32:33.671Z,58.98
2023-02-22T04:35:36.904Z,59.10
2023-02-22T04:38:11.276Z,59.38
2023-02-22T04:40:53.464Z,59.78
2023-02-22T04:43:32.043Z,61.24
2023-02-22T04:46:57.568Z,67.82
2023-02-22T04:50:11.753Z,69.69
2023-02-22T04:52:53.186Z,68.32
2023-02-22T04:55:47.797Z,67.19
2023-02-22T04:58:18.969Z,66.24
2023-02-22T05:00:53.797Z,64.44
2023-02-22T05:03:49.257Z,64.11
2023-02-22T05:06:25.682Z,63.38
2023-02-22T05:09:07.165Z,62.82
2023-02-22T05:11:54.585Z,62.48
2023-02-22T05:14:28.294Z,61.88
2023-02-22T05:16:59.819Z,61.36
2023-02-22T05:20:11.488Z,60.79
2023-02-22T05:23:37.458Z,60.41
2023-02-22T05:26:19.662Z,59.78
2023-02-22T05:29:24.990Z,59.89
2023-02-22T05:32:12.759Z,60.03
2023-02-22T05:34:55.142Z,59.29
2023-02-22T05:37:50.795Z,57.65
2023-02-22T05:40:49.888Z,58.38
2023-02-22T05:43:47.867Z,60.05
2023-02-22T05:46:27.447Z,60.66
2023-02-22T05:49:13.532Z,62.78
2023-02-22T05:51:42.252Z,69.02
2023-02-22T05:54:18.414Z,69.77
2023-02-22T05:57:06.340Z,67.27
2023-02-22T05:59:43.325Z,65.93
2023-02-22T06:02:29.631Z,65.04
2023-02-22T06:05:22.815Z,63.84
2023-02-22T06:08:04.594Z,62.66
2023-02-22T06:11:28.420Z,62.13
2023-02-22T06:14:46.107Z,61.54
2023-02-22T06:17:45.175Z,60.96
2023-02-22T06:21:04.976Z,60.68
2023-02-22T06:24:04.577Z,60.36
2023-02-22T06:27:37.570Z,59.76
2023-02-22T06:30:46.253Z,57.80
2023-02-22T06:33:40.874Z,60.29
2023-02-22T06:36:53.186Z,59.98
2023-02-22T06:40:04.716Z,65.47
2023-02-22T06:43:39.918Z,65.76
2023-02-22T06:47:26.947Z,64.77
2023-02-22T06:50:05.884Z,63.70
2023-02-22T06:53:16.945Z,62.70
2023-02-22T06:56:06.013Z,61.22
2023-02-22T06:59:46.701Z,60.48
2023-02-22T07:02:30.922Z,59.69
2023-02-22T07:06:03.678Z,59.16
2023-02-22T07:09:20.258Z,60.14
2023-02-22T07:12:31.498Z,64.48
2023-02-22T07:15:43.397Z,64.97
2023-02-22T07:19:39.839Z,62.71
2023-02-22T07:22:27.019Z,61.26
2023-02-22T07:26:29.030Z,60.10
2023-02-22T07:29:39.908Z,58.84
2023-02-22T07:32:38.989Z,57.81
2023-02-22T07:36:13.660Z,62.01
2023-02-22T07:39:48.571Z,63.68
2023-02-22T07:43:57.940Z,61.28
2023-02-22T07:48:06.720Z,59.80
2023-02-22T07:51:25.105Z,59.24
2023-02-22T07:55:12.981Z,61.10
2023-02-22T07:59:07.948Z,63.40
2023-02-22T08:02:56.510Z,58.40
2023-02-22T08:06:43.421Z,59.99
2023-02-22T08:10:35.766Z,61.74
2023-02-22T08:14:26.715Z,60.72
2023-02-22T08:17:53.508Z,61.88
2023-02-22T08:22:03.084Z,56.53
2023-02-22T08:25:47.947Z,58.68
2023-02-22T08:29:17.456Z,60.28
2023-02-22T08:32:52.747Z,60.66
2023-02-22T08:36:22.077Z,59.76
2023-02-22T08:40:07.489Z,60.52
2023-02-22T08:43:44.384Z,61.47
2023-02-22T08:47:07.125Z,63.85
2023-02-22T08:50:01.238Z,59.28
2023-02-22T08:53:16.443Z,50.39
2023-02-22T08:56:11.704Z,53.09
2023-02-22T08:59:51.228Z,55.17
2023-02-22T09:02:43.159Z,57.10
2023-02-22T09:06:34.619Z,57.58
2023-02-22T09:09:47.363Z,58.88
2023-02-22T09:12:45.439Z,59.85
2023-02-22T09:16:05.154Z,58.07
2023-02-22T09:18:44.103Z,59.96
2023-02-22T09:22:00.688Z,60.45
2023-02-22T09:25:15.949Z,59.73
2023-02-22T09:28:08.413Z,59.77
2023-02-22T09:31:01.162Z,60.05
2023-02-22T09:33:42.359Z,60.24
2023-02-22T09:36:17.360Z,60.72
2023-02-22T09:39:14.722Z,61.32
2023-02-22T09:43:01.221Z,61.70
2023-02-22T09:46:42.320Z,61.61
2023-02-22T09:50:50.797Z,60.22
2023-02-22T09:54:14.643Z,61.58
2023-02-22T09:57:31.124Z,60.59
2023-02-22T10:00:54.074Z,60.76
2023-02-22T10:05:02.384Z,60.74
2023-02-22T10:08:08.154Z,60.65
2023-02-22T10:11:58.863Z,59.86
2023-02-22T10:15:22.841Z,59.86
2023-02-22T10:19:05.354Z,59.83
2023-02-22T10:23:03.128Z,58.74
2023-02-22T10:26:29.156Z,59.56
2023-02-22T10:30:23.807Z,59.82
2023-02-22T10:33:53.774Z,60.08
2023-02-22T10:37:44.773Z,60.05
2023-02-22T10:41:01.272Z,60.39
2023-02-22T10:43:52.209Z,60.56
2023-02-22T10:46:53.756Z,59.37
2023-02-22T10:49:53.688Z,58.69
2023-02-22T10:53:19.579Z,58.49
2023-02-22T10:57:05.098Z,58.87
2023-02-22T11:00:48.221Z,57.58
2023-02-22T11:03:28.273Z,57.29
2023-02-22T11:06:30.647Z,56.83
2023-02-22T11:10:01.408Z,56.61
2023-02-22T11:13:31.595Z,55.81
2023-02-22T11:17:10.041Z,56.86
2023-02-22T11:21:11.596Z,55.48
2023-02-22T11:28:51.164Z,55.18
2023-02-22T11:32:14.673Z,55.06
2023-02-22T11:35:46.367Z,55.23
2023-02-22T11:39:17.751Z,55.20
2023-02-22T11:43:16.748Z,55.88
2023-02-22T11:46:47.292Z,55.53
2023-02-22T11:50:37.585Z,54.99
2023-02-22T11:53:54.590Z,53.59
2023-02-22T11:58:00.560Z,53.66
2023-02-22T12:01:23.598Z,54.61
2023-02-22T12:05:30.403Z,55.06
2023-02-22T12:09:27.479Z,54.60
2023-02-22T12:12:52.777Z,53.37
2023-02-22T12:16:15.820Z,52.19
2023-02-22T12:20:24.967Z,53.31
2023-02-22T12:23:54.542Z,52.81
2023-02-22T12:26:41.304Z,52.86
2023-02-22T12:30:22.742Z,53.59
2023-02-22T12:32:59.143Z,53.60
2023-02-22T12:35:42.882Z,54.23
2023-02-22T12:38:52.306Z,54.68
2023-02-22T12:41:49.312Z,54.52
2023-02-22T12:45:32.201Z,54.58
2023-02-22T12:49:51.308Z,54.79
2023-02-22T12:54:06.275Z,55.35
2023-02-22T12:57:44.982Z,56.10
2023-02-22T13:01:17.899Z,56.18
2023-02-22T13:04:46.662Z,56.26
2023-02-22T13:07:59.793Z,56.11
2023-02-22T13:11:12.811Z,55.81
2023-02-22T13:14:38.121Z,56.60
2023-02-22T13:18:46.544Z,56.81
2023-02-22T13:22:06.328Z,57.30
2023-02-22T13:25:04.809Z,57.80
2023-02-22T13:27:52.512Z,57.74
2023-02-22T13:30:45.564Z,57.69
2023-02-22T13:34:32.305Z,57.57
2023-02-22T13:38:05.233Z,57.77
2023-02-22T13:41:42.700Z,58.08
2023-02-22T13:46:02.505Z,57.72
2023-02-22T13:49:55.751Z,57.88
2023-02-22T13:53:22.968Z,58.28
2023-02-22T13:56:23.545Z,58.48
2023-02-22T13:59:55.260Z,58.33
2023-02-22T14:03:40.986Z,58.25
2023-02-22T14:07:29.345Z,58.37
2023-02-22T14:11:44.631Z,58.58
2023-02-22T14:14:36.659Z,58.74
2023-02-22T14:18:17.443Z,58.77
2023-02-22T14:21:20.554Z,59.14
2023-02-22T14:23:53.409Z,59.18
2023-02-22T14:26:55.686Z,59.23
2023-02-22T14:29:39.111Z,59.55
2023-02-22T14:33:04.363Z,59.70
2023-02-22T14:36:18.181Z,59.74
2023-02-22T14:39:00.672Z,59.92
2023-02-22T14:41:46.684Z,60.43
2023-02-22T14:44:43.257Z,61.15
2023-02-22T14:47:33.376Z,61.55
2023-02-22T14:50:59.441Z,61.79
2023-02-22T14:53:48.078Z,62.19
2023-02-22T14:57:23.837Z,62.08
2023-02-22T15:00:35.567Z,61.95
2023-02-22T15:04:16.249Z,62.07
2023-02-22T15:07:02.592Z,62.22
2023-02-22T15:09:46.683Z,63.20
2023-02-22T15:12:25.043Z,64.50
2023-02-22T15:15:20.167Z,55.57
2023-02-22T15:18:12.521Z,53.32
2023-02-22T15:20:49.210Z,54.10
2023-02-22T15:23:50.523Z,56.14
2023-02-22T15:27:01.056Z,57.72
2023-02-22T15:30:32.302Z,58.80
2023-02-22T15:34:32.341Z,59.73
2023-02-22T15:37:47.433Z,60.17
2023-02-22T15:40:34.966Z,60.39
2023-02-22T15:43:28.779Z,60.60
2023-02-22T15:46:01.944Z,61.44
2023-02-22T15:49:23.500Z,61.14
2023-02-22T15:52:19.798Z,61.62
2023-02-22T15:55:31.568Z,61.80
2023-02-22T15:58:23.853Z,61.82
2023-02-22T16:01:11.202Z,61.87
2023-02-22T16:03:52.937Z,62.12
2023-02-22T16:07:33.642Z,61.93
2023-02-22T16:10:09.251Z,62.22
2023-02-22T16:13:30.585Z,63.11
2023-02-22T16:17:36.848Z,63.79
2023-02-22T16:21:04.922Z,51.81
2023-02-22T16:24:16.453Z,52.36
2023-02-22T16:27:14.581Z,54.77
2023-02-22T16:30:43.326Z,57.14
2023-02-22T16:33:22.504Z,58.35
2023-02-22T16:36:56.117Z,59.62
2023-02-22T16:39:51.954Z,61.07
2023-02-22T16:42:29.222Z,62.48
2023-02-22T16:45:03.033Z,63.45
2023-02-22T16:48:05.802Z,59.82
2023-02-22T16:50:34.491Z,52.37
2023-02-22T16:53:23.686Z,54.49
2023-02-22T16:56:12.516Z,56.82
2023-02-22T16:58:47.133Z,58.69
2023-02-22T17:02:09.476Z,58.78
2023-02-22T17:04:43.587Z,61.34
2023-02-22T17:07:30.971Z,61.07
2023-02-22T17:10:16.798Z,61.97
2023-02-22T17:12:47.337Z,62.96
2023-02-22T17:15:41.899Z,58.57
2023-02-22T17:18:21.456Z,55.48
2023-02-22T17:20:51.267Z,55.95
2023-02-22T17:23:25.070Z,56.48
2023-02-22T17:26:03.577Z,57.05
2023-02-22T17:28:55.517Z,57.76
2023-02-22T17:31:26.582Z,59.41
2023-02-22T17:34:18.038Z,60.17
2023-02-22T17:36:54.243Z,60.84
2023-02-22T17:39:28.395Z,61.24
2023-02-22T17:42:17.414Z,60.84
2023-02-22T17:44:51.073Z,60.76
2023-02-22T17:47:19.392Z,61.90
2023-02-22T17:49:49.204Z,61.38
2023-02-22T17:52:20.572Z,62.24
2023-02-22T17:54:51.416Z,62.72
2023-02-22T17:57:20.071Z,64.54
2023-02-22T17:59:51.929Z,65.53
2023-02-22T18:02:22.867Z,61.98
2023-02-22T18:04:57.184Z,57.16
2023-02-22T18:07:25.664Z,54.76
2023-02-22T18:10:13.241Z,56.89
2023-02-22T18:13:00.616Z,57.53
2023-02-22T18:15:40.010Z,58.71
2023-02-22T18:18:43.824Z,59.74
2023-02-22T18:21:16.441Z,60.40
2023-02-22T18:23:54.025Z,61.08
2023-02-22T18:26:23.635Z,62.65
2023-02-22T18:28:57.170Z,63.37
2023-02-22T18:31:36.307Z,62.85
2023-02-22T18:34:13.177Z,61.17
2023-02-22T18:36:44.179Z,55.38
2023-02-22T18:39:17.793Z,55.04
2023-02-22T18:41:48.953Z,56.46
2023-02-22T18:44:22.023Z,58.94
2023-02-22T18:46:54.213Z,59.75
2023-02-22T18:49:31.281Z,61.46
2023-02-22T18:52:05.741Z,60.95
2023-02-22T18:54:42.872Z,62.18
2023-02-22T18:57:17.079Z,63.91
2023-02-22T18:59:50.126Z,62.12
2023-02-22T19:02:21.515Z,61.36
2023-02-22T19:04:50.546Z,57.62
2023-02-22T19:07:23.285Z,57.84
2023-02-22T19:09:58.180Z,58.98
2023-02-22T19:12:33.680Z,60.51
2023-02-22T19:15:02.306Z,63.39
2023-02-22T19:17:42.816Z,64.60
2023-02-22T19:20:14.683Z,60.49
2023-02-22T19:23:02.393Z,58.26
2023-02-22T19:25:33.744Z,57.03
2023-02-22T19:28:28.044Z,59.56
2023-02-22T19:31:33.650Z,62.10
2023-02-22T19:34:24.526Z,65.74
2023-02-22T19:37:12.519Z,61.61
2023-02-22T19:39:54.514Z,62.12
2023-02-22T19:42:36.362Z,57.48
2023-02-22T19:45:08.819Z,56.79
2023-02-22T19:48:10.440Z,58.08
2023-02-22T19:51:27.778Z,59.96
2023-02-22T19:54:24.612Z,61.62
2023-02-22T19:57:09.982Z,64.99
2023-02-22T19:59:55.049Z,66.34
2023-02-22T20:02:31.721Z,63.68
2023-02-22T20:05:16.831Z,61.48
2023-02-22T20:07:58.998Z,59.33
2023-02-22T20:10:34.505Z,56.27
2023-02-22T20:13:21.899Z,55.96
2023-02-22T20:15:54.601Z,58.79
2023-02-22T20:19:13.854Z,61.50
2023-02-22T20:21:44.746Z,63.62
2023-02-22T20:24:36.705Z,66.08
2023-02-22T20:27:15.280Z,63.66
2023-02-22T20:30:32.304Z,56.95
2023-02-22T20:33:19.260Z,56.47
2023-02-22T20:35:59.375Z,59.54
2023-02-22T20:38:27.960Z,61.32
2023-02-22T20:40:56.240Z,63.58
2023-02-22T20:43:35.056Z,62.31
2023-02-22T20:46:13.648Z,59.03
2023-02-22T20:49:08.675Z,60.70
2023-02-22T20:51:39.493Z,63.02
2023-02-22T20:54:12.449Z,63.42
2023-02-22T20:56:44.888Z,60.92
2023-02-22T20:59:18.289Z,58.24
2023-02-22T21:01:50.512Z,58.53
2023-02-22T21:04:22.159Z,59.92
2023-02-22T21:06:53.240Z,63.20
2023-02-22T21:09:24.165Z,64.07
2023-02-22T21:11:52.442Z,61.64
2023-02-22T21:14:25.529Z,59.38
2023-02-22T21:16:54.289Z,60.38
2023-02-22T21:19:30.784Z,62.42
2023-02-22T21:22:08.430Z,63.41
2023-02-22T21:24:49.355Z,61.44
2023-02-22T21:27:32.499Z,59.46
2023-02-22T21:30:13.081Z,60.82
2023-02-22T21:32:44.930Z,63.88
2023-02-22T21:35:18.219Z,62.65
2023-02-22T21:37:46.758Z,62.30
2023-02-22T21:40:19.327Z,59.25
2023-02-22T21:42:56.329Z,55.85
2023-02-22T21:45:26.215Z,54.95
2023-02-22T21:48:05.485Z,55.19
2023-02-22T21:50:37.866Z,59.35
2023-02-22T21:53:09.808Z,64.88
2023-02-22T21:55:46.555Z,65.38
2023-02-22T21:58:20.388Z,64.41
2023-02-22T22:00:51.018Z,62.97
2023-02-22T22:03:22.574Z,61.66
2023-02-22T22:05:51.360Z,60.14
2023-02-22T22:08:27.725Z,56.56
2023-02-22T22:11:20.704Z,54.83
2023-02-22T22:13:57.000Z,57.09
2023-02-22T22:16:34.737Z,57.17
2023-02-22T22:19:32.502Z,60.82
2023-02-22T22:22:28.415Z,58.88
2023-02-22T22:25:00.320Z,56.89
2023-02-22T22:27:32.651Z,56.68
2023-02-22T22:30:05.432Z,57.12
2023-02-22T22:32:35.120Z,59.19
2023-02-22T22:35:20.087Z,59.49
2023-02-22T22:37:58.619Z,63.89
2023-02-22T22:40:32.833Z,69.76
2023-02-22T22:43:14.213Z,69.43
2023-02-22T22:46:07.446Z,64.69
2023-02-22T22:48:47.026Z,61.15
2023-02-22T22:51:27.885Z,59.26
2023-02-22T22:54:08.552Z,58.12
2023-02-22T22:56:43.480Z,60.06
2023-02-22T22:59:15.447Z,63.34
2023-02-22T23:01:46.728Z,65.92
2023-02-22T23:04:29.278Z,64.01
2023-02-22T23:06:57.677Z,61.62
2023-02-22T23:09:41.720Z,60.38
2023-02-22T23:12:37.438Z,60.21
2023-02-22T23:15:13.994Z,59.72
2023-02-22T23:17:59.314Z,58.26
2023-02-22T23:20:30.437Z,59.24
2023-02-22T23:23:16.011Z,61.65
2023-02-22T23:26:19.429Z,65.62
2023-02-22T23:28:59.367Z,64.91
2023-02-22T23:32:07.425Z,62.69
2023-02-22T23:34:49.691Z,61.21
2023-02-22T23:37:27.053Z,60.79
2023-02-22T23:40:01.898Z,60.38
2023-02-22T23:43:32.295Z,60.03
2023-02-22T23:46:10.844Z,57.87
2023-02-22T23:49:02.128Z,59.74
2023-02-22T23:52:03.914Z,61.82
2023-02-22T23:54:56.655Z,65.13
2023-02-22T23:57:33.535Z,64.57
